createdAt,value
2023-03-24T00:02:04.602Z,15.17
2023-03-24T00:04:35.369Z,15.73
2023-03-24T00:07:05.806Z,15.57
2023-03-24T00:09:36.102Z,14.52
2023-03-24T00:12:06.667Z,15.67
2023-03-24T00:14:37.138Z,14.60
2023-03-24T00:17:16.177Z,15.67
2023-03-24T00:19:50.284Z,13.98
2023-03-24T00:22:23.652Z,14.32
2023-03-24T00:24:53.934Z,15.25
2023-03-24T00:27:24.962Z,14.32
2023-03-24T00:29:55.285Z,16.27
2023-03-24T00:32:25.464Z,15.52
2023-03-24T00:35:16.055Z,14.43
2023-03-24T00:37:47.075Z,15.63
2023-03-24T00:42:51.353Z,16.02
2023-03-24T00:45:25.356Z,15.55
2023-03-24T00:48:13.672Z,14.88
2023-03-24T00:50:48.342Z,14.85
2023-03-24T00:53:20.978Z,15.05
2023-03-24T00:55:52.416Z,15.90
2023-03-24T00:58:24.174Z,16.42
2023-03-24T01:00:58.608Z,17.20
2023-03-24T01:03:29.840Z,16.30
2023-03-24T01:06:18.662Z,16.50
2023-03-24T01:08:49.646Z,17.43
2023-03-24T01:11:20.453Z,15.63
2023-03-24T01:13:51.906Z,17.02
2023-03-24T01:16:22.739Z,15.65
2023-03-24T01:18:53.184Z,15.85
2023-03-24T01:21:23.689Z,17.63
2023-03-24T01:23:55.164Z,18.05
2023-03-24T01:26:25.767Z,16.88
2023-03-24T01:28:56.178Z,19.23
2023-03-24T01:34:12.364Z,17.83
2023-03-24T01:36:42.903Z,18.73
2023-03-24T01:39:13.177Z,17.08
2023-03-24T01:44:37.705Z,17.17
2023-03-24T01:47:11.150Z,17.45
2023-03-24T01:49:56.774Z,18.45
2023-03-24T01:55:22.466Z,17.65
2023-03-24T01:58:00.667Z,18.05
2023-03-24T02:00:40.512Z,17.90
2023-03-24T02:03:36.651Z,18.30
2023-03-24T02:06:09.314Z,19.48
2023-03-24T02:08:57.452Z,17.52
2023-03-24T02:11:47.377Z,19.00
2023-03-24T02:14:18.590Z,19.67
2023-03-24T02:17:25.761Z,20.67
2023-03-24T02:20:53.780Z,18.20
2023-03-24T02:23:35.806Z,19.98
2023-03-24T02:26:36.133Z,20.45
2023-03-24T02:29:36.798Z,19.20
2023-03-24T02:32:53.545Z,21.15
2023-03-24T02:36:06.870Z,20.45
2023-03-24T02:39:04.087Z,19.52
2023-03-24T02:41:42.639Z,21.13
2023-03-24T02:44:28.411Z,20.83
2023-03-24T02:47:26.827Z,21.95
2023-03-24T02:50:36.186Z,22.10
2023-03-24T02:53:19.095Z,21.45
2023-03-24T02:56:15.409Z,22.27
2023-03-24T02:59:18.947Z,22.63
2023-03-24T03:02:10.786Z,21.55
2023-03-24T03:05:10.565Z,20.85
2023-03-24T03:07:41.512Z,23.05
2023-03-24T03:10:41.239Z,22.27
2023-03-24T03:14:08.437Z,22.35
2023-03-24T03:17:02.251Z,23.15
2023-03-24T03:19:55.104Z,22.33
2023-03-24T03:23:07.988Z,24.00
2023-03-24T03:31:10.698Z,24.52
2023-03-24T03:34:23.591Z,25.55
2023-03-24T03:37:03.191Z,24.75
2023-03-24T03:39:38.241Z,23.65
2023-03-24T03:42:12.442Z,22.95
2023-03-24T03:44:43.478Z,24.15
2023-03-24T03:47:34.510Z,23.98
2023-03-24T03:50:07.195Z,23.73
2023-03-24T03:52:40.771Z,24.10
2023-03-24T03:55:13.060Z,84.63
2023-03-24T03:57:45.810Z,24.73
2023-03-24T04:00:27.739Z,32.83
2023-03-24T04:03:47.375Z,26.00
2023-03-24T04:06:57.361Z,28.27
2023-03-24T04:13:03.527Z,98.60
2023-03-24T04:16:06.074Z,288.17
2023-03-24T04:22:29.575Z,318.95
2023-03-24T04:25:32.478Z,329.48
2023-03-24T04:28:33.398Z,323.73
2023-03-24T04:31:28.882Z,399.97
2023-03-24T04:34:23.064Z,399.88
2023-03-24T04:37:06.520Z,386.50
2023-03-24T04:39:49.231Z,60.38
2023-03-24T04:45:35.815Z,54.35
2023-03-24T04:48:24.314Z,46.65
2023-03-24T04:51:15.427Z,42.40
2023-03-24T04:54:04.254Z,47.20
2023-03-24T04:57:08.420Z,40.47
2023-03-24T04:59:45.472Z,44.35
2023-03-24T05:02:34.230Z,28.92
2023-03-24T05:05:23.442Z,30.92
2023-03-24T05:10:40.097Z,26.83
2023-03-24T05:13:11.618Z,26.80
2023-03-24T05:15:52.584Z,26.90
2023-03-24T05:18:30.232Z,24.50
2023-03-24T05:21:02.442Z,29.60
2023-03-24T05:23:33.225Z,28.15
2023-03-24T05:26:03.775Z,24.63
2023-03-24T05:28:38.629Z,26.27
2023-03-24T05:31:09.362Z,27.00
2023-03-24T05:33:59.037Z,26.98
2023-03-24T05:36:47.168Z,28.10
2023-03-24T05:39:22.057Z,28.63
2023-03-24T05:41:59.339Z,28.27
2023-03-24T05:44:29.762Z,25.57
2023-03-24T05:47:18.647Z,27.80
2023-03-24T05:52:36.692Z,28.55
2023-03-24T05:55:27.632Z,25.98
2023-03-24T05:58:05.959Z,58.08
2023-03-24T06:00:46.981Z,179.52
2023-03-24T06:03:36.877Z,28.13
2023-03-24T06:06:25.456Z,26.70
2023-03-24T06:08:57.112Z,27.42
2023-03-24T06:11:29.023Z,26.75
2023-03-24T06:14:17.540Z,28.90
2023-03-24T06:17:01.791Z,27.45
2023-03-24T06:19:35.326Z,30.35
2023-03-24T06:22:22.977Z,27.27
2023-03-24T06:24:53.478Z,28.83
2023-03-24T06:27:29.262Z,28.67
2023-03-24T06:30:20.157Z,26.88
2023-03-24T06:35:36.274Z,27.40
2023-03-24T06:38:24.742Z,26.58
2023-03-24T06:41:13.270Z,24.92
2023-03-24T06:46:29.782Z,27.00
2023-03-24T06:49:00.074Z,26.75
2023-03-24T06:51:30.609Z,25.70
2023-03-24T06:54:19.371Z,26.75
2023-03-24T06:59:26.551Z,25.38
2023-03-24T07:01:58.026Z,24.73
2023-03-24T07:04:30.443Z,24.30
2023-03-24T07:09:47.149Z,24.20
2023-03-24T07:12:18.029Z,23.83
2023-03-24T07:17:33.637Z,25.15
2023-03-24T07:23:28.857Z,25.73
2023-03-24T07:26:20.031Z,24.95
2023-03-24T07:28:50.676Z,26.53
2023-03-24T07:34:25.862Z,23.63
2023-03-24T07:37:00.631Z,24.52
2023-03-24T07:39:33.535Z,25.17
2023-03-24T07:42:04.316Z,25.30
2023-03-24T07:47:30.499Z,24.65
2023-03-24T07:50:01.318Z,23.47
2023-03-24T07:52:32.649Z,23.08
2023-03-24T07:55:21.423Z,25.45
2023-03-24T07:58:10.165Z,24.52
2023-03-24T08:00:45.546Z,31.08
2023-03-24T08:09:42.623Z,22.85
2023-03-24T08:12:30.939Z,23.63
2023-03-24T08:15:01.437Z,23.33
2023-03-24T08:17:31.829Z,23.80
2023-03-24T08:20:04.706Z,23.13
2023-03-24T08:22:36.119Z,21.65
2023-03-24T08:25:06.459Z,23.23
2023-03-24T08:27:37.136Z,21.90
2023-03-24T08:30:09.916Z,22.58
2023-03-24T08:32:40.698Z,23.45
2023-03-24T08:35:33.873Z,24.50
2023-03-24T08:38:25.622Z,26.55
2023-03-24T08:40:55.840Z,24.73
2023-03-24T08:43:44.269Z,23.48
2023-03-24T08:46:36.480Z,22.92
2023-03-24T08:49:25.155Z,23.40
2023-03-24T08:51:55.558Z,22.20
2023-03-24T08:54:27.229Z,22.15
2023-03-24T08:56:57.729Z,22.55
2023-03-24T08:59:27.997Z,21.57
2023-03-24T09:01:58.532Z,22.60
2023-03-24T09:04:48.290Z,21.80
2023-03-24T09:07:36.943Z,21.42
2023-03-24T09:10:09.936Z,20.60
2023-03-24T09:15:26.428Z,20.48
2023-03-24T09:18:15.072Z,20.70
2023-03-24T09:20:45.636Z,19.50
2023-03-24T09:23:16.750Z,21.27
2023-03-24T09:25:48.138Z,19.98
2023-03-24T09:28:18.759Z,19.08
2023-03-24T09:30:49.405Z,18.30
2023-03-24T09:33:20.367Z,23.73
2023-03-24T09:36:00.555Z,18.57
2023-03-24T09:38:32.664Z,18.67
2023-03-24T09:41:05.149Z,21.20
2023-03-24T09:44:12.131Z,18.83
2023-03-24T09:46:49.013Z,20.23
2023-03-24T09:49:41.134Z,17.65
2023-03-24T09:52:17.653Z,19.88
2023-03-24T09:54:55.262Z,18.23
2023-03-24T09:57:31.397Z,17.80
2023-03-24T10:00:01.644Z,18.38
2023-03-24T10:09:18.400Z,18.65
2023-03-24T10:12:11.117Z,16.77
2023-03-24T10:14:53.526Z,17.80
2023-03-24T10:17:53.486Z,206.35
2023-03-24T10:23:41.374Z,18.33
2023-03-24T10:26:32.698Z,76.35
2023-03-24T10:29:27.849Z,18.02
2023-03-24T10:32:06.441Z,17.35
2023-03-24T10:34:37.521Z,17.48
2023-03-24T10:37:26.201Z,17.48
2023-03-24T10:39:56.513Z,17.60
2023-03-24T10:45:32.644Z,16.40
2023-03-24T10:48:06.693Z,16.08
2023-03-24T10:50:56.075Z,15.25
2023-03-24T10:53:26.778Z,15.75
2023-03-24T10:55:57.138Z,16.70
2023-03-24T10:58:48.400Z,16.97
2023-03-24T11:01:33.305Z,15.32
2023-03-24T11:04:23.268Z,16.95
2023-03-24T11:07:23.178Z,15.75
2023-03-24T11:10:01.893Z,14.70
2023-03-24T11:12:34.666Z,14.20
2023-03-24T11:15:35.772Z,14.63
2023-03-24T11:18:14.673Z,15.32
2023-03-24T11:21:10.364Z,15.57
2023-03-24T11:23:48.425Z,15.02
2023-03-24T11:26:24.568Z,15.88
2023-03-24T11:29:00.109Z,15.00
2023-03-24T11:31:40.633Z,15.95
2023-03-24T11:34:19.308Z,15.10
2023-03-24T11:39:39.969Z,16.85
2023-03-24T11:42:19.686Z,14.70
2023-03-24T11:44:55.412Z,16.10
2023-03-24T11:47:41.169Z,16.50
2023-03-24T11:50:40.458Z,17.20
2023-03-24T11:53:33.496Z,15.50
2023-03-24T11:56:12.813Z,16.23
2023-03-24T12:02:15.002Z,15.98
2023-03-24T12:05:24.077Z,15.80
2023-03-24T12:08:22.665Z,16.10
2023-03-24T12:11:19.725Z,15.95
2023-03-24T13:33:18.417Z,14.90
2023-03-24T13:35:59.895Z,13.43
2023-03-24T13:38:43.381Z,13.43
2023-03-24T13:41:29.881Z,14.05
2023-03-24T13:44:09.042Z,13.55
2023-03-24T13:47:05.140Z,13.05
2023-03-24T13:52:47.723Z,14.05
2023-03-24T13:55:41.756Z,14.45
2023-03-24T13:58:28.789Z,13.77
2023-03-24T14:01:15.610Z,13.70
2023-03-24T14:04:11.880Z,13.35
2023-03-24T14:06:49.349Z,13.32
2023-03-24T14:09:26.161Z,13.30
2023-03-24T14:12:08.673Z,13.02
2023-03-24T14:15:08.342Z,14.15
2023-03-24T14:17:46.555Z,13.82
2023-03-24T14:23:37.718Z,14.10
2023-03-24T14:26:32.626Z,13.77
2023-03-24T14:29:03.630Z,15.60
2023-03-24T14:32:16.977Z,14.02
2023-03-24T14:35:02.907Z,15.00
2023-03-24T14:37:35.780Z,13.90
2023-03-24T14:40:10.334Z,13.60
2023-03-24T14:42:42.643Z,13.88
2023-03-24T14:45:44.063Z,13.43
2023-03-24T14:48:45.332Z,13.45
2023-03-24T14:51:30.466Z,14.45
2023-03-24T14:54:39.854Z,13.57
2023-03-24T14:57:11.708Z,13.88
2023-03-24T14:59:44.740Z,13.10
2023-03-24T15:02:45.153Z,12.82
2023-03-24T15:05:30.189Z,14.35
2023-03-24T15:08:17.195Z,13.98
2023-03-24T15:11:07.533Z,14.23
2023-03-24T15:13:41.132Z,13.30
2023-03-24T15:16:14.912Z,12.98
2023-03-24T15:19:08.060Z,13.30
2023-03-24T15:21:44.609Z,12.63
2023-03-24T15:24:34.785Z,12.13
2023-03-24T15:27:20.654Z,12.48
2023-03-24T15:29:57.428Z,12.45
2023-03-24T15:32:29.827Z,12.85
2023-03-24T15:35:02.810Z,12.05
2023-03-24T15:37:43.218Z,12.77
2023-03-24T15:40:32.858Z,12.23
2023-03-24T15:43:05.998Z,12.65
2023-03-24T15:48:27.405Z,11.85
2023-03-24T15:51:04.624Z,12.13
2023-03-24T15:54:01.489Z,11.60
2023-03-24T15:56:34.513Z,12.90
2023-03-24T15:59:14.236Z,13.10
2023-03-24T16:01:45.503Z,13.32
2023-03-24T16:04:23.121Z,13.00
2023-03-24T16:06:57.309Z,12.77
2023-03-24T16:09:29.584Z,14.35
2023-03-24T16:11:59.914Z,13.07
2023-03-24T16:14:33.017Z,14.27
2023-03-24T16:17:05.559Z,13.55
2023-03-24T16:19:35.840Z,13.05
2023-03-24T16:22:17.345Z,13.30
2023-03-24T16:24:47.679Z,13.35
2023-03-24T16:27:18.490Z,13.05
2023-03-24T16:29:50.073Z,12.75
2023-03-24T16:32:20.367Z,13.77
2023-03-24T16:34:50.750Z,14.00
2023-03-24T16:37:21.273Z,13.83
2023-03-24T16:39:51.794Z,14.20
2023-03-24T16:42:22.103Z,13.87
2023-03-24T16:44:52.610Z,13.90
2023-03-24T16:47:24.098Z,14.60
2023-03-24T16:49:54.435Z,13.43
2023-03-24T16:52:24.718Z,13.48
2023-03-24T16:54:56.642Z,13.55
2023-03-24T16:57:26.967Z,13.85
2023-03-24T16:59:57.249Z,14.27
2023-03-24T17:02:50.940Z,13.93
2023-03-24T17:05:29.998Z,14.45
2023-03-24T17:08:00.779Z,13.70
2023-03-24T17:10:31.035Z,14.13
2023-03-24T17:13:01.622Z,14.47
2023-03-24T17:15:34.157Z,14.60
2023-03-24T17:18:22.829Z,13.35
2023-03-24T17:20:53.722Z,13.77
2023-03-24T17:23:24.390Z,14.07
2023-03-24T17:25:54.813Z,14.45
2023-03-24T17:28:25.029Z,13.93
2023-03-24T17:30:55.329Z,15.18
2023-03-24T17:33:25.654Z,14.93
2023-03-24T17:35:56.815Z,14.25
2023-03-24T17:38:27.238Z,14.68
2023-03-24T17:41:06.389Z,15.57
2023-03-24T17:43:36.887Z,15.65
